| Record Date MM/DD/YYYY | Record Time HH:MM:SS | Record Julian Date NNN day of the year | Air Temperature Max (Degrees Fahrenheit F) | Time Max Air Temperature HH:MM:SS This is the time of max air temp for the prior hour interval listed for record [Time]. | Air Temperature Min (Degrees Fahrenheit F) | Time Min Air Temperature HH:MM:SS This is the time of min air temp for the prior hour interval listed for record [Time]. | Air Temperature Observed (Degrees Fahrenheit F) This is an instantaneous reading at the record [Time]. | Relative Humidity Max (Percent) | Time Max Relative Humidity HH:MM:SS This is the time of max relative humidity for the prior hour interval listed for record [Time]. | Relative Humidity Min (Percent) | Time Min Relative Humidity HH:MM:SS This is the time of min relative humidity for the prior hour interval listed for record [Time]. | Relative Humidity Observed (Percent) This is an instantaneous reading at the record [Time]. | Precipitation (Inches n.nn) rain fall that occurred during the prior hour interval listed for record [Time]. | Wind Speed (Miles Per Hour) Resultant Speed that occurred during the prior hour interval listed for record [Time]. | Wind Direction (Degrees) Resultant Direction that occurred during the prior hour interval listed for record [Time]. | Solar Radiation (Langley's) that occurred during the prior hour interval listed for record [Time]. | Soil Temperature Average at 2 inch depth (Degrees Fahrenheit F) that occurred during the prior hour interval listed for record [Time]. | Soil Temperature Observed at 2 inch depth (Degrees Fahrenheit F) This is an instantaneous reading at the record [Time]. | Soil Temperature Average at 4 inch depth (Degrees Fahrenheit F) that occurred during the prior hour interval listed for record [Time]. | Soil Temperature Observed at 4 inch depth (Degrees Fahrenheit F) This is an instantaneous reading at the record [Time]. |
|---|---|---|---|---|---|---|---|---|---|---|---|---|---|---|---|---|---|---|---|---|
| 05/03/2026 | 0:00:00 | 123 | 52 | 23:47:02 | 50 | 23:05:02 | 50 | 88 | 23:09:01 | 83 | 23:47:04 | 86.4 | 0 | |||||||
| 05/03/2026 | 1:00:00 | 123 | 50 | 0:00:01 | 48 | 0:58:02 | 48 | 90 | 0:59:04 | 86 | 0:00:01 | 90.2 | 0 | |||||||
| 05/03/2026 | 2:00:00 | 123 | 48 | 1:00:03 | 46 | 1:51:00 | 46 | 94 | 1:59:05 | 90 | 1:00:01 | 93.5 | 0 | |||||||
| 05/03/2026 | 3:00:00 | 123 | 46 | 2:02:02 | 45 | 2:55:03 | 45 | 95 | 2:59:03 | 94 | 2:00:01 | 94.9 | 0 | |||||||
| 05/03/2026 | 4:00:00 | 123 | 46 | 3:19:02 | 45 | 3:58:00 | 45 | 96 | 4:00:00 | 95 | 3:41:02 | 95.6 | 0 | |||||||
| 05/03/2026 | 5:00:00 | 123 | 45 | 4:04:02 | 44 | 4:52:00 | 44 | 96 | 4:57:02 | 96 | 4:11:05 | 96.3 | 0 | |||||||
| 05/03/2026 | 6:00:00 | 123 | 49 | 6:00:00 | 44 | 5:03:00 | 49 | 97 | 5:11:01 | 94 | 6:00:00 | 93.9 | 0 | |||||||
| 05/03/2026 | 7:00:00 | 123 | 56 | 7:00:00 | 49 | 6:00:02 | 56 | 94 | 6:01:05 | 75 | 6:54:04 | 77 | 0 | |||||||
| 05/03/2026 | 8:00:00 | 123 | 60 | 7:59:01 | 56 | 7:15:00 | 60 | 78 | 7:02:03 | 63 | 7:59:03 | 64.06 | 0 | |||||||
| 05/03/2026 | 9:00:00 | 123 | 63 | 8:56:04 | 60 | 8:00:01 | 63 | 67 | 8:01:04 | 46 | 8:46:05 | 53.35 | 0 | |||||||
| 05/03/2026 | 10:00:00 | 123 | 67 | 10:00:00 | 63 | 9:00:01 | 67 | 56 | 9:33:00 | 43 | 9:46:01 | 49.14 | 0 | |||||||
| 05/03/2026 | 11:00:00 | 123 | 70 | 10:56:01 | 67 | 10:28:04 | 68 | 52 | 10:31:03 | 39 | 10:49:02 | 48.26 | 0 | |||||||
| 05/03/2026 | 12:00:00 | 123 | 71 | 12:00:00 | 67 | 11:03:03 | 71 | 50 | 11:12:00 | 39 | 11:17:03 | 43.53 | 0 | |||||||
| 05/03/2026 | 13:00:00 | 123 | 72 | 12:59:05 | 70 | 12:07:02 | 72 | 50 | 12:09:03 | 37 | 12:21:01 | 42 | 0 | |||||||
| 05/03/2026 | 14:00:00 | 123 | 72 | 13:00:01 | 71 | 13:24:03 | 72 | 49 | 13:10:05 | 37 | 13:56:01 | 42.09 | 0 | |||||||
| 05/03/2026 | 15:00:00 | 123 | 75 | 14:57:05 | 72 | 14:02:01 | 75 | 48 | 14:18:02 | 36 | 14:58:02 | 41.62 | 0 | |||||||
| 05/03/2026 | 16:00:00 | 123 | 77 | 15:47:02 | 74 | 15:14:01 | 76 | 45 | 15:15:04 | 35 | 15:51:00 | 37.9 | 0 | |||||||
| 05/03/2026 | 17:00:00 | 123 | 79 | 16:53:05 | 75 | 16:22:00 | 76 | 41 | 16:59:02 | 32 | 16:49:02 | 36.53 | 0 | |||||||
| 05/03/2026 | 18:00:00 | 123 | 76 | 17:00:01 | 73 | 18:00:00 | 73 | 50 | 17:58:04 | 36 | 17:06:01 | 49.32 | 0 | |||||||
| 05/03/2026 | 19:00:00 | 123 | 73 | 18:00:01 | 63 | 19:00:00 | 63 | 76 | 18:59:04 | 48 | 18:05:01 | 75.55 | 0 | |||||||
| 05/03/2026 | 20:00:00 | 123 | 63 | 19:00:01 | 61 | 19:26:00 | 62 | 81 | 19:07:04 | 67 | 19:59:02 | 67.59 | 0 | |||||||
| 05/03/2026 | 21:00:00 | 123 | 62 | 20:00:01 | 57 | 20:59:05 | 57 | 87 | 20:59:01 | 67 | 20:04:00 | 87.4 | 0 | |||||||
| 05/03/2026 | 22:00:00 | 123 | 57 | 21:00:01 | 55 | 21:59:05 | 55 | 91 | 21:59:03 | 87 | 21:35:03 | 90.7 | 0 | |||||||
| 05/03/2026 | 23:00:00 | 123 | 56 | 22:51:03 | 54 | 22:32:01 | 55 | 92 | 22:09:02 | 86 | 22:53:03 | 86.9 | 0 | |||||||
| 05/04/2026 | 0:00:00 | 124 | 56 | 23:23:01 | 53 | 23:59:04 | 53 | 88 | 23:59:05 | 85 | 23:30:00 | 88.1 | 0 | |||||||
| 05/04/2026 | 1:00:00 | 124 | 54 | 0:08:04 | 53 | 0:52:04 | 54 | 93 | 0:55:04 | 86 | 0:19:04 | 91.9 | 0 | |||||||
| 05/04/2026 | 2:00:00 | 124 | 54 | 1:05:04 | 52 | 2:00:00 | 52 | 93 | 1:28:00 | 89 | 1:50:03 | 90.9 | 0 | |||||||
| 05/04/2026 | 3:00:00 | 124 | 52 | 2:00:02 | 50 | 2:26:04 | 51 | 94 | 2:59:02 | 91 | 2:06:05 | 94.1 | 0 | |||||||
| 05/04/2026 | 4:00:00 | 124 | 51 | 3:44:04 | 50 | 3:22:00 | 50 | 95 | 3:41:04 | 94 | 3:06:03 | 94.6 | 0 | |||||||
| 05/04/2026 | 5:00:00 | 124 | 50 | 4:00:01 | 49 | 4:54:02 | 49 | 95 | 4:58:03 | 94 | 4:07:04 | 95.2 | 0 | |||||||
| 05/04/2026 | 6:00:00 | 124 | 56 | 6:00:00 | 49 | 5:04:05 | 56 | 96 | 5:14:04 | 86 | 5:58:05 | 86.4 | 0 | |||||||
| 05/04/2026 | 7:00:00 | 124 | 64 | 6:50:05 | 56 | 6:04:01 | 63 | 87 | 6:00:03 | 67 | 6:55:03 | 69.78 | 0 | |||||||
| 05/04/2026 | 8:00:00 | 124 | 69 | 7:58:00 | 63 | 7:00:01 | 69 | 70 | 7:01:03 | 59 | 7:58:04 | 63.09 | 0 | |||||||
| 05/04/2026 | 9:00:00 | 124 | 72 | 8:54:03 | 68 | 8:01:01 | 72 | 64 | 8:01:05 | 53 | 8:49:01 | 58.33 | 0 | |||||||
| 05/04/2026 | 10:00:00 | 124 | 77 | 9:52:03 | 72 | 9:00:01 | 76 | 60 | 9:00:04 | 46 | 9:25:05 | 48.04 | 0 | |||||||
| 05/04/2026 | 11:00:00 | 124 | 79 | 10:57:00 | 76 | 10:05:02 | 79 | 53 | 10:14:04 | 42 | 10:32:05 | 44.11 | 0 | |||||||
| 05/04/2026 | 12:00:00 | 124 | 81 | 11:58:05 | 78 | 11:19:03 | 80 | 50 | 11:22:02 | 37 | 11:30:04 | 43.54 | 0 | |||||||
| 05/04/2026 | 13:00:00 | 124 | 81 | 12:59:00 | 80 | 12:17:05 | 81 | 48 | 12:21:02 | 37 | 12:38:02 | 40.57 | 0 | |||||||
| 05/04/2026 | 14:00:00 | 124 | 82 | 13:48:00 | 80 | 13:21:02 | 81 | 44 | 13:14:00 | 33 | 13:19:04 | 39.83 | 0 | |||||||
| 05/04/2026 | 15:00:00 | 124 | 82 | 14:59:00 | 80 | 14:12:00 | 82 | 43 | 14:12:05 | 34 | 14:36:05 | 37.44 | 0 | |||||||
| 05/04/2026 | 16:00:00 | 124 | 82 | 15:48:01 | 81 | 15:03:05 | 82 | 41 | 15:07:05 | 35 | 15:24:05 | 37.14 | 0 | |||||||
| 05/04/2026 | 17:00:00 | 124 | 82 | 16:02:05 | 79 | 16:44:04 | 79 | 44 | 16:52:05 | 36 | 16:03:05 | 40.88 | 0 | |||||||
| 05/04/2026 | 18:00:00 | 124 | 80 | 17:09:03 | 77 | 18:00:00 | 77 | 47 | 17:59:01 | 39 | 17:09:04 | 46.09 | 0 | |||||||
| 05/04/2026 | 19:00:00 | 124 | 77 | 18:00:01 | 68 | 18:59:05 | 68 | 60 | 18:45:04 | 46 | 18:00:03 | 58.66 | 0 | |||||||
| 05/04/2026 | 20:00:00 | 124 | 68 | 19:00:01 | 65 | 19:53:03 | 65 | 67 | 20:00:00 | 57 | 19:11:01 | 67.1 | 0 | |||||||
| 05/04/2026 | 21:00:00 | 124 | 67 | 20:17:05 | 64 | 20:44:05 | 64 | 69 | 20:43:00 | 62 | 20:15:04 | 68.83 | 0 | |||||||
| 05/04/2026 | 22:00:00 | 124 | 64 | 21:00:01 | 61 | 22:00:00 | 61 | 76 | 22:00:00 | 69 | 21:00:02 | 76.23 | 0 | |||||||
| 05/04/2026 | 23:00:00 | 124 | 61 | 22:00:01 | 59 | 23:00:00 | 59 | 82 | 23:00:00 | 76 | 22:00:01 | 81.5 | 0 | |||||||
| 05/05/2026 | 0:00:00 | 125 | 62 | 23:30:04 | 59 | 23:06:03 | 61 | 84 | 23:18:00 | 74 | 23:29:02 | 75.55 | 0 | |||||||
| 05/05/2026 | 1:00:00 | 125 | 61 | 0:00:01 | 59 | 1:00:00 | 59 | 80 | 1:00:00 | 76 | 0:01:00 | 80.3 | 0 | |||||||
| 05/05/2026 | 2:00:00 | 125 | 59 | 1:00:01 | 57 | 1:58:03 | 57 | 86 | 1:59:05 | 80 | 1:00:02 | 86.4 | 0 | |||||||
| 05/05/2026 | 3:00:00 | 125 | 57 | 2:05:01 | 56 | 2:21:01 | 56 | 88 | 2:27:00 | 86 | 2:00:01 | 87.8 | 0 | |||||||
| 05/05/2026 | 4:00:00 | 125 | 57 | 3:42:00 | 56 | 3:17:03 | 56 | 89 | 3:20:04 | 88 | 3:01:03 | 88.4 | 0 | |||||||
| 05/05/2026 | 5:00:00 | 125 | 56 | 4:00:04 | 56 | 5:00:00 | 56 | 90 | 4:59:04 | 88 | 4:02:04 | 89.8 | 0 | |||||||
| 05/05/2026 | 6:00:00 | 125 | 59 | 5:58:03 | 56 | 5:09:00 | 59 | 91 | 5:15:02 | 84 | 5:41:05 | 85 | 0 | |||||||
| 05/05/2026 | 7:00:00 | 125 | 64 | 6:58:00 | 59 | 6:00:02 | 64 | 85 | 6:00:04 | 75 | 6:58:02 | 76.08 | 0 | |||||||
| 05/05/2026 | 8:00:00 | 125 | 70 | 7:48:03 | 64 | 7:00:01 | 69 | 76 | 7:00:01 | 65 | 7:29:02 | 69.61 | 0 | |||||||
| 05/05/2026 | 9:00:00 | 125 | 72 | 8:55:01 | 69 | 8:00:01 | 72 | 70 | 8:00:04 | 62 | 8:23:03 | 65.61 | 0 | |||||||
| 05/05/2026 | 10:00:00 | 125 | 76 | 9:55:00 | 72 | 9:00:01 | 75 | 66 | 9:00:02 | 57 | 9:59:03 | 58.36 | 0 | |||||||
| 05/05/2026 | 11:00:00 | 125 | 77 | 10:21:03 | 75 | 10:04:05 | 77 | 63 | 10:03:02 | 56 | 10:23:04 | 57.82 | 0 | |||||||
| 05/05/2026 | 12:00:00 | 125 | 80 | 11:55:00 | 77 | 11:00:01 | 79 | 61 | 11:04:00 | 51 | 11:55:02 | 54.91 | 0 | |||||||
| 05/05/2026 | 13:00:00 | 125 | 80 | 12:03:00 | 77 | 12:42:05 | 77 | 59 | 12:58:04 | 51 | 12:04:04 | 57.51 | 0 | |||||||
| 05/05/2026 | 14:00:00 | 125 | 77 | 13:02:05 | 76 | 13:47:00 | 76 | 61 | 13:58:04 | 56 | 13:04:04 | 59.03 | 0 | |||||||
| 05/05/2026 | 15:00:00 | 125 | 78 | 14:40:05 | 76 | 14:00:01 | 76 | 62 | 14:59:04 | 57 | 14:41:03 | 61.05 | 0 | |||||||
| 05/05/2026 | 16:00:00 | 125 | 78 | 15:32:03 | 76 | 15:04:02 | 76 | 63 | 16:00:00 | 59 | 15:33:01 | 63.49 | 0 | |||||||
| 05/05/2026 | 17:00:00 | 125 | 77 | 16:11:03 | 76 | 16:55:03 | 76 | 67 | 16:41:04 | 62 | 16:03:02 | 66.25 | 0 | |||||||
| 05/05/2026 | 18:00:00 | 125 | 76 | 17:12:01 | 74 | 17:58:00 | 74 | 70 | 17:55:05 | 66 | 17:00:01 | 69.65 | 0 | |||||||
| 05/05/2026 | 19:00:00 | 125 | 74 | 18:00:01 | 73 | 18:52:00 | 73 | 73 | 18:59:00 | 70 | 18:00:01 | 72.95 | 0 | |||||||
| 05/05/2026 | 20:00:00 | 125 | 73 | 19:54:01 | 73 | 19:31:05 | 73 | 74 | 19:58:00 | 72 | 19:05:00 | 73.94 | 0 | |||||||
| 05/05/2026 | 21:00:00 | 125 | 73 | 20:00:01 | 72 | 20:29:00 | 73 | 76 | 20:52:00 | 74 | 20:02:01 | 75.68 | 0 | |||||||
| 05/05/2026 | 22:00:00 | 125 | 73 | 21:17:03 | 71 | 21:56:05 | 71 | 77 | 21:56:04 | 74 | 21:15:01 | 76.7 | 0 | |||||||
| 05/05/2026 | 23:00:00 | 125 | 71 | 22:01:00 | 70 | 22:58:00 | 70 | 81 | 22:58:01 | 77 | 22:00:03 | 80.8 | 0 | |||||||
| 05/06/2026 | 0:00:00 | 126 | 70 | 23:00:01 | 69 | 23:30:03 | 69 | 83 | 23:59:04 | 81 | 23:00:02 | 83 | 0 | |||||||
| 05/06/2026 | 1:00:00 | 126 | 69 | 0:00:03 | 68 | 0:59:04 | 68 | 86 | 0:59:05 | 83 | 0:00:02 | 85.8 | 0 | |||||||
| 05/06/2026 | 2:00:00 | 126 | 68 | 1:00:02 | 68 | 1:52:04 | 68 | 89 | 2:00:00 | 86 | 1:00:01 | 88.5 | 0 | |||||||
| 05/06/2026 | 3:00:00 | 126 | 68 | 2:00:02 | 67 | 2:27:01 | 67 | 90 | 2:59:05 | 89 | 2:00:03 | 90.3 | 0 | |||||||
| 05/06/2026 | 4:00:00 | 126 | 68 | 4:00:00 | 67 | 3:00:02 | 68 | 91 | 3:55:03 | 90 | 3:00:02 | 91.2 | 0 | |||||||
| 05/06/2026 | 5:00:00 | 126 | 69 | 4:56:00 | 68 | 4:00:01 | 69 | 91 | 4:12:03 | 90 | 4:57:05 | 89.9 | 0 | |||||||
| 05/06/2026 | 6:00:00 | 126 | 69 | 5:57:05 | 69 | 5:00:01 | 69 | 90 | 5:00:01 | 89 | 5:48:04 | 89.5 | 0 | |||||||
| 05/06/2026 | 7:00:00 | 126 | 72 | 6:58:02 | 69 | 6:05:04 | 72 | 90 | 6:27:03 | 85 | 6:59:02 | 85.4 | 0 | |||||||
| 05/06/2026 | 8:00:00 | 126 | 75 | 7:51:02 | 72 | 7:02:01 | 75 | 86 | 7:08:02 | 79 | 7:49:04 | 79.51 | 0 | |||||||
| 05/06/2026 | 9:00:00 | 126 | 76 | 8:56:03 | 75 | 8:00:01 | 76 | 81 | 8:07:03 | 78 | 8:26:00 | 79 | 0 | |||||||
| 05/06/2026 | 10:00:00 | 126 | 77 | 9:21:02 | 75 | 9:57:05 | 75 | 82 | 9:57:05 | 77 | 9:12:00 | 82 | 0 | |||||||
| 05/06/2026 | 11:00:00 | 126 | 80 | 11:00:00 | 75 | 10:00:03 | 80 | 82 | 10:03:00 | 74 | 10:58:02 | 74.87 | 0 | |||||||
| 05/06/2026 | 12:00:00 | 126 | 81 | 11:18:05 | 78 | 11:51:00 | 78 | 79 | 11:54:01 | 71 | 11:20:02 | 77.71 | 0 | |||||||
| 05/06/2026 | 13:00:00 | 126 | 78 | 12:00:01 | 76 | 12:41:03 | 78 | 83 | 12:46:03 | 77 | 12:00:02 | 79.54 | 0 | |||||||
| 05/06/2026 | 14:00:00 | 126 | 80 | 13:34:01 | 78 | 13:00:05 | 79 | 80 | 13:55:04 | 75 | 13:35:03 | 79.63 | 0 | |||||||
| 05/06/2026 | 15:00:00 | 126 | 80 | 14:05:01 | 78 | 14:31:01 | 79 | 83 | 14:35:03 | 77 | 14:09:02 | 80.7 | 0 | |||||||
| 05/06/2026 | 16:00:00 | 126 | 79 | 15:11:04 | 77 | 16:00:00 | 77 | 84 | 16:00:00 | 79 | 15:13:03 | 84.2 | 0 | |||||||
| 05/06/2026 | 17:00:00 | 126 | 77 | 16:00:01 | 76 | 16:28:04 | 76 | 90 | 16:42:03 | 84 | 16:00:04 | 89.8 | 0 | |||||||
| 05/06/2026 | 18:00:00 | 126 | 76 | 17:00:01 | 62 | 17:57:00 | 62 | 97 | 18:00:00 | 85 | 17:04:04 | 96.8 | 0 | |||||||
| 05/06/2026 | 19:00:00 | 126 | 62 | 18:33:05 | 62 | 18:10:03 | 62 | 98 | 18:33:05 | 97 | 18:01:01 | 97.6 | 0.01 | |||||||
| 05/06/2026 | 20:00:00 | 126 | 62 | 19:03:00 | 62 | 19:37:00 | 62 | 98 | 19:57:05 | 98 | 19:17:03 | 98 | 0 | |||||||
| 05/06/2026 | 21:00:00 | 126 | 62 | 20:52:01 | 62 | 20:34:00 | 62 | 98 | 20:51:01 | 98 | 20:02:01 | 98.2 | 0.01 | |||||||
| 05/06/2026 | 22:00:00 | 126 | 62 | 21:03:05 | 61 | 21:53:05 | 61 | 98 | 21:18:03 | 98 | 21:51:05 | 98.4 | 0 | |||||||
| 05/06/2026 | 23:00:00 | 126 | 61 | 22:00:02 | 59 | 22:58:01 | 59 | 99 | 22:30:03 | 98 | 22:02:01 | 98.5 | 0 | |||||||
| 05/07/2026 | 0:00:00 | 127 | 59 | 23:00:05 | 58 | 23:54:04 | 58 | 99 | 23:28:01 | 98 | 23:02:03 | 98.6 | 0.01 | |||||||
| 05/07/2026 | 1:00:00 | 127 | 58 | 0:04:05 | 58 | 0:56:05 | 58 | 99 | 0:03:03 | 98 | 0:07:02 | 98.6 | 0.01 | |||||||
| 05/07/2026 | 2:00:00 | 127 | 58 | 1:00:01 | 57 | 1:44:02 | 57 | 99 | 1:56:00 | 98 | 1:04:01 | 98.6 | 0.09 | |||||||
| 05/07/2026 | 3:00:00 | 127 | 57 | 2:00:01 | 56 | 2:59:03 | 56 | 99 | 2:30:05 | 99 | 2:00:05 | 98.7 | 0.1 | |||||||
| 05/07/2026 | 4:00:00 | 127 | 56 | 3:53:01 | 56 | 3:06:01 | 56 | 99 | 3:21:03 | 99 | 4:00:00 | 98.5 | 0.05 | |||||||
| 05/07/2026 | 5:00:00 | 127 | 57 | 4:51:04 | 56 | 4:34:00 | 56 | 99 | 4:02:03 | 98 | 5:00:00 | 97.8 | 0.03 | |||||||
| 05/07/2026 | 6:00:00 | 127 | 56 | 5:00:01 | 56 | 5:30:05 | 56 | 98 | 5:02:01 | 97 | 6:00:00 | 97.1 | 0.02 | |||||||
| 05/07/2026 | 7:00:00 | 127 | 57 | 6:52:04 | 56 | 6:00:02 | 57 | 97 | 6:02:04 | 95 | 6:58:00 | 95.4 | 0.02 | |||||||
| 05/07/2026 | 8:00:00 | 127 | 57 | 7:20:01 | 56 | 7:00:03 | 57 | 96 | 7:02:00 | 94 | 7:53:04 | 93.6 | 0.02 | |||||||
| 05/07/2026 | 9:00:00 | 127 | 62 | 8:57:02 | 56 | 8:10:04 | 61 | 94 | 8:05:02 | 82 | 8:59:03 | 82.8 | 0.01 | |||||||
| 05/07/2026 | 10:00:00 | 127 | 65 | 9:57:01 | 61 | 9:01:01 | 64 | 85 | 9:03:04 | 76 | 9:58:03 | 80.9 | 0.02 | |||||||
| 05/07/2026 | 11:00:00 | 127 | 67 | 10:49:05 | 63 | 10:06:05 | 66 | 81 | 10:00:02 | 71 | 10:57:05 | 75.61 | 0.02 | |||||||
| 05/07/2026 | 12:00:00 | 127 | 68 | 12:00:00 | 65 | 11:14:00 | 68 | 76 | 11:21:04 | 69 | 11:45:04 | 71.58 | 0 | |||||||
| 05/07/2026 | 13:00:00 | 127 | 70 | 12:59:01 | 67 | 12:38:01 | 70 | 75 | 12:10:05 | 63 | 12:54:01 | 65.57 | 0 | |||||||
| 05/07/2026 | 14:00:00 | 127 | 72 | 13:51:02 | 70 | 13:38:01 | 71 | 71 | 13:02:00 | 60 | 13:56:05 | 64.98 | 0 | |||||||
| 05/07/2026 | 15:00:00 | 127 | 73 | 14:40:00 | 71 | 14:09:04 | 72 | 67 | 14:22:05 | 57 | 14:59:02 | 60.93 | 0 | |||||||
| 05/07/2026 | 16:00:00 | 127 | 73 | 15:59:03 | 71 | 15:39:01 | 73 | 64 | 15:01:01 | 54 | 15:59:05 | 54.13 | 0 | |||||||
| 05/07/2026 | 17:00:00 | 127 | 73 | 16:14:02 | 71 | 16:56:03 | 71 | 61 | 16:09:03 | 55 | 16:00:01 | 58.25 | 0 | |||||||
| 05/07/2026 | 18:00:00 | 127 | 71 | 17:00:05 | 66 | 18:00:00 | 66 | 72 | 17:59:05 | 57 | 17:02:02 | 71.68 | 0 | |||||||
| 05/07/2026 | 19:00:00 | 127 | 66 | 18:00:01 | 61 | 19:00:00 | 61 | 89 | 18:59:02 | 72 | 18:03:01 | 89.3 | 0 | |||||||
| 05/07/2026 | 20:00:00 | 127 | 61 | 19:00:01 | 59 | 19:59:01 | 59 | 92 | 19:59:01 | 89 | 19:00:01 | 92 | 0 | |||||||
| 05/07/2026 | 21:00:00 | 127 | 59 | 20:00:01 | 58 | 20:58:04 | 58 | 93 | 20:57:00 | 91 | 20:16:00 | 93 | 0 | |||||||
| 05/07/2026 | 22:00:00 | 127 | 58 | 21:13:05 | 57 | 21:54:02 | 57 | 94 | 21:59:04 | 92 | 21:18:05 | 94.1 | 0 | |||||||
| 05/07/2026 | 23:00:00 | 127 | 57 | 22:00:01 | 56 | 22:44:00 | 56 | 96 | 23:00:00 | 94 | 22:00:01 | 95.7 | 0 | |||||||
| 05/08/2026 | 0:00:00 | 128 | 57 | 23:45:04 | 56 | 23:00:02 | 56 | 97 | 23:56:04 | 96 | 23:00:02 | 96.4 | 0 | |||||||
| 05/08/2026 | 1:00:00 | 128 | 56 | 0:00:01 | 54 | 0:58:04 | 54 | 97 | 1:00:00 | 96 | 0:01:05 | 97 | 0 | |||||||
| 05/08/2026 | 2:00:00 | 128 | 55 | 1:27:00 | 54 | 2:00:00 | 54 | 98 | 1:58:00 | 97 | 1:01:00 | 97.5 | 0 | |||||||
| 05/08/2026 | 3:00:00 | 128 | 55 | 2:53:00 | 54 | 2:03:03 | 55 | 98 | 2:26:05 | 97 | 2:02:00 | 97.5 | 0 | |||||||
| 05/08/2026 | 4:00:00 | 128 | 55 | 3:00:01 | 54 | 3:58:01 | 54 | 98 | 3:27:04 | 98 | 3:00:01 | 97.6 | 0 | |||||||
| 05/08/2026 | 5:00:00 | 128 | 54 | 4:05:01 | 53 | 4:58:00 | 53 | 98 | 4:54:04 | 98 | 4:00:02 | 97.8 | 0 | |||||||
| 05/08/2026 | 6:00:00 | 128 | 55 | 5:59:02 | 53 | 5:10:04 | 55 | 98 | 5:20:00 | 98 | 5:58:02 | 97.7 | 0 | |||||||
| 05/08/2026 | 7:00:00 | 128 | 56 | 6:50:04 | 55 | 6:00:01 | 56 | 98 | 6:01:01 | 90 | 7:00:00 | 90.4 | 0 | |||||||
| 05/08/2026 | 8:00:00 | 128 | 60 | 7:57:02 | 56 | 7:00:02 | 60 | 90 | 7:00:01 | 76 | 7:58:02 | 76.67 | 0 | |||||||
| 05/08/2026 | 9:00:00 | 128 | 65 | 8:59:03 | 60 | 8:00:01 | 64 | 80 | 8:02:05 | 63 | 8:59:05 | 63.69 | 0 | |||||||
| 05/08/2026 | 10:00:00 | 128 | 66 | 9:54:04 | 64 | 9:11:03 | 66 | 69 | 9:18:02 | 59 | 9:42:00 | 62.53 | 0 | |||||||
| 05/08/2026 | 11:00:00 | 128 | 66 | 10:01:04 | 65 | 10:11:03 | 66 | 70 | 10:59:00 | 58 | 10:24:03 | 69.28 | 0 | |||||||
| 05/08/2026 | 12:00:00 | 128 | 67 | 11:55:02 | 65 | 11:04:00 | 67 | 69 | 11:06:01 | 60 | 11:59:04 | 61.2 | 0 | |||||||
| 05/08/2026 | 13:00:00 | 128 | 69 | 12:54:01 | 67 | 12:01:00 | 68 | 67 | 12:58:00 | 59 | 12:20:04 | 64.19 | 0 | |||||||
| 05/08/2026 | 14:00:00 | 128 | 69 | 13:01:04 | 67 | 13:52:03 | 67 | 72 | 13:53:05 | 63 | 13:03:02 | 70.19 | 0 | |||||||
| 05/08/2026 | 15:00:00 | 128 | 67 | 14:05:01 | 65 | 15:00:00 | 65 | 75 | 14:38:02 | 68 | 14:05:05 | 73.83 | 0 | |||||||
| 05/08/2026 | 16:00:00 | 128 | 66 | 15:24:05 | 65 | 15:08:01 | 66 | 78 | 15:42:05 | 73 | 15:00:05 | 76.18 | 0 | |||||||
| 05/08/2026 | 17:00:00 | 128 | 66 | 16:29:01 | 65 | 16:47:03 | 65 | 79 | 16:42:05 | 75 | 16:00:02 | 78.38 | 0 | |||||||
| 05/08/2026 | 18:00:00 | 128 | 66 | 17:32:00 | 64 | 17:59:01 | 64 | 82 | 17:59:05 | 76 | 17:17:03 | 82.1 | 0 | |||||||
| 05/08/2026 | 19:00:00 | 128 | 64 | 18:00:01 | 62 | 18:59:05 | 62 | 88 | 19:00:00 | 82 | 18:00:04 | 88 | 0 | |||||||
| 05/08/2026 | 20:00:00 | 128 | 62 | 19:00:01 | 61 | 19:46:03 | 61 | 92 | 20:00:00 | 88 | 19:00:01 | 91.8 | 0 | |||||||
| 05/08/2026 | 21:00:00 | 128 | 61 | 20:02:00 | 59 | 20:54:00 | 59 | 96 | 20:59:05 | 92 | 20:00:01 | 95.8 | 0 | |||||||
| 05/08/2026 | 22:00:00 | 128 | 60 | 21:54:05 | 59 | 21:25:04 | 60 | 96 | 21:35:00 | 96 | 21:24:03 | 95.6 | 0 | |||||||
| 05/08/2026 | 23:00:00 | 128 | 61 | 22:59:02 | 60 | 22:07:05 | 61 | 96 | 22:16:01 | 96 | 22:41:05 | 95.8 | 0 | |||||||
| 05/09/2026 | 0:00:00 | 129 | 61 | 23:39:00 | 61 | 23:02:05 | 61 | 96 | 23:00:01 | 96 | 23:42:00 | 95.7 | 0 | |||||||
| 05/09/2026 | 1:00:00 | 129 | 61 | 0:01:01 | 60 | 0:57:01 | 60 | 98 | 0:59:02 | 96 | 0:03:03 | 97.5 | 0.07 | |||||||
| 05/09/2026 | 2:00:00 | 129 | 60 | 1:00:03 | 60 | 1:14:04 | 60 | 99 | 1:54:04 | 98 | 1:00:03 | 98.4 | 0.05 | |||||||
| 05/09/2026 | 3:00:00 | 129 | 61 | 2:48:03 | 60 | 2:01:00 | 60 | 99 | 2:48:03 | 98 | 2:00:01 | 98.6 | 0.03 | |||||||
| 05/09/2026 | 4:00:00 | 129 | 61 | 3:59:04 | 60 | 3:05:02 | 61 | 99 | 3:59:04 | 99 | 3:02:01 | 98.8 | 0.04 | |||||||
| 05/09/2026 | 5:00:00 | 129 | 61 | 4:11:05 | 61 | 4:52:00 | 61 | 99 | 4:59:05 | 99 | 4:04:05 | 99 | 0.04 | |||||||
| 05/09/2026 | 6:00:00 | 129 | 61 | 5:55:03 | 61 | 5:00:02 | 61 | 99 | 5:59:05 | 99 | 5:01:03 | 99.1 | 0.04 | |||||||
| 05/09/2026 | 7:00:00 | 129 | 62 | 6:58:05 | 61 | 6:03:00 | 62 | 99 | 6:16:01 | 99 | 6:53:00 | 99 | 0.01 | |||||||
| 05/09/2026 | 8:00:00 | 129 | 63 | 8:00:00 | 62 | 7:00:01 | 63 | 99 | 7:03:05 | 98 | 7:54:00 | 98.5 | 0 | |||||||
| 05/09/2026 | 9:00:00 | 129 | 67 | 8:48:00 | 63 | 8:00:01 | 67 | 99 | 8:00:04 | 90 | 8:53:04 | 92 | 0 | |||||||
| 05/09/2026 | 10:00:00 | 129 | 71 | 9:59:04 | 67 | 9:14:04 | 71 | 92 | 9:01:01 | 82 | 9:56:04 | 82.4 | 0 | |||||||
| 05/09/2026 | 11:00:00 | 129 | 73 | 11:00:00 | 71 | 10:17:05 | 73 | 84 | 10:02:00 | 71 | 10:49:04 | 72.51 | 0 | |||||||
| 05/09/2026 | 12:00:00 | 129 | 75 | 11:44:05 | 73 | 11:25:05 | 75 | 78 | 11:27:02 | 68 | 11:47:05 | 72.11 | 0 | |||||||
| 05/09/2026 | 13:00:00 | 129 | 77 | 12:25:02 | 74 | 12:06:02 | 75 | 75 | 12:05:04 | 66 | 12:26:05 | 71.29 | 0 | |||||||
| 05/09/2026 | 14:00:00 | 129 | 76 | 13:53:04 | 75 | 13:12:04 | 75 | 74 | 13:13:03 | 65 | 13:43:01 | 70.55 | 0 | |||||||
| 05/09/2026 | 15:00:00 | 129 | 78 | 15:00:00 | 75 | 14:00:01 | 78 | 73 | 14:05:03 | 66 | 14:34:04 | 67.03 | 0 | |||||||
| 05/09/2026 | 16:00:00 | 129 | 78 | 15:02:03 | 76 | 15:56:05 | 76 | 72 | 15:58:04 | 64 | 15:09:04 | 71.85 | 0 | |||||||
| 05/09/2026 | 17:00:00 | 129 | 76 | 16:00:02 | 74 | 16:58:04 | 74 | 74 | 16:50:05 | 69 | 16:03:00 | 72.58 | 0 | |||||||
| 05/09/2026 | 18:00:00 | 129 | 74 | 17:01:04 | 72 | 17:59:05 | 72 | 89 | 18:00:00 | 73 | 17:08:00 | 88.5 | 0 | |||||||
| 05/09/2026 | 19:00:00 | 129 | 72 | 18:00:01 | 69 | 18:59:05 | 69 | 91 | 19:00:00 | 88 | 18:33:01 | 91.3 | 0 | |||||||
| 05/09/2026 | 20:00:00 | 129 | 69 | 19:00:01 | 68 | 19:59:00 | 68 | 94 | 20:00:00 | 91 | 19:00:01 | 94 | 0 | |||||||
| 05/09/2026 | 21:00:00 | 129 | 68 | 20:00:01 | 67 | 20:59:03 | 67 | 96 | 20:59:05 | 94 | 20:00:02 | 96.4 | 0 | |||||||
| 05/09/2026 | 22:00:00 | 129 | 67 | 21:00:01 | 65 | 21:59:04 | 65 | 97 | 21:40:02 | 96 | 21:01:03 | 97.2 | 0 | |||||||
| 05/09/2026 | 23:00:00 | 129 | 65 | 22:29:04 | 64 | 23:00:00 | 64 | 98 | 22:45:00 | 97 | 22:00:04 | 98.1 | 0 | |||||||
| 05/10/2026 | 0:00:00 | 130 | 64 | 23:59:03 | 63 | 23:08:01 | 64 | 99 | 23:59:03 | 98 | 23:04:05 | 98.9 | 0 | |||||||
| 05/10/2026 | 1:00:00 | 130 | 65 | 0:08:04 | 64 | 0:45:03 | 64 | 99 | 0:55:01 | 99 | 0:03:00 | 99.1 | 0 | |||||||
| 05/10/2026 | 2:00:00 | 130 | 64 | 1:59:03 | 64 | 1:22:04 | 64 | 99 | 1:59:03 | 99 | 1:01:00 | 99.3 | 0 | |||||||
| 05/10/2026 | 3:00:00 | 130 | 65 | 2:56:03 | 64 | 2:04:05 | 65 | 100 | 2:56:04 | 99 | 2:04:05 | 99.5 | 0 | |||||||
| 05/10/2026 | 4:00:00 | 130 | 65 | 3:02:05 | 64 | 3:42:04 | 65 | 100 | 3:59:02 | 99 | 3:21:00 | 99.6 | 0 | |||||||
| Average | 66.33 | 64.1 | 65.2 | 82.01 | 75.9 | 79.19 | 0 | 0 | 0 | 0 | 0 | 0 | 0 | |||||||
| Total | 0.7 |